Time;durP1;ratioP1;P1;durP2;ratioP2;P2;SDS_P1;SDS_P2;PMS_P1;PMS_P2;Temp;Humidity;BMP_temperature;BMP_pressure;BME280_temperature;BME280_humidity;BME280_pressure;Samples;Min_cycle;Max_cycle;Signal;HPM_P1;HPM_P2
2021/01/13 00:01:29;;;;;;;;;20.00;19.00;;;;;7.77;48.03;97468.94;6158105;28;126350;-57
2021/01/13 00:04:30;;;;;;;;;18.00;16.75;;;;;7.99;48.09;97504.78;6142957;28;126070;-58
2021/01/13 00:07:32;;;;;;;;;20.00;18.00;;;;;8.04;48.08;97502.22;6142632;28;125627;-58
2021/01/13 00:10:33;;;;;;;;;20.00;17.50;;;;;8.07;48.09;97509.78;6158462;28;125240;-57
2021/01/13 00:13:35;;;;;;;;;20.60;19.00;;;;;8.01;48.28;97505.38;6158807;28;127005;-58
2021/01/13 00:16:36;;;;;;;;;22.00;18.40;;;;;8.15;47.95;97513.97;6158952;28;125514;-58
2021/01/13 00:19:38;;;;;;;;;21.67;18.67;;;;;8.16;47.93;97508.34;6150953;28;126500;-57
2021/01/13 00:22:39;;;;;;;;;20.00;17.00;;;;;8.17;47.87;97515.34;6158479;28;126372;-57
2021/01/13 00:25:41;;;;;;;;;18.20;17.00;;;;;8.14;47.96;97512.31;6158484;28;127844;-58
2021/01/13 00:28:42;;;;;;;;;18.60;17.00;;;;;8.10;48.25;97516.56;6154889;28;127686;-57
2021/01/13 00:31:47;;;;;;;;;18.80;16.80;;;;;8.12;48.26;97525.16;6158002;28;126943;-57
2021/01/13 00:34:48;;;;;;;;;18.00;17.00;;;;;8.07;48.27;97520.50;6158291;28;126325;-58
2021/01/13 00:37:50;;;;;;;;;17.00;15.00;;;;;8.14;47.86;97517.69;6157483;28;125555;-57
2021/01/13 00:40:53;;;;;;;;;17.75;16.00;;;;;8.15;48.37;97522.84;6158393;28;124742;-57
2021/01/13 00:43:56;;;;;;;;;16.33;15.33;;;;;8.07;48.82;97525.88;6148862;28;125276;-57
2021/01/13 00:46:58;;;;;;;;;21.00;19.00;;;;;8.10;48.95;97536.16;6162164;28;126726;-57
2021/01/13 00:49:59;;;;;;;;;20.40;19.00;;;;;8.14;48.79;97544.53;6161552;28;125237;-57
2021/01/13 00:53:01;;;;;;;;;20.00;19.00;;;;;7.93;49.50;97556.72;6160293;28;126208;-57
2021/01/13 00:56:03;;;;;;;;;19.20;17.00;;;;;7.85;49.83;97554.41;6143970;28;126906;-58
2021/01/13 00:59:04;;;;;;;;;16.80;14.80;;;;;7.75;50.41;97555.03;6160764;28;124926;-58
2021/01/13 01:02:06;;;;;;;;;18.60;16.60;;;;;7.80;50.39;97555.13;6160901;28;126850;-57
2021/01/13 01:05:08;;;;;;;;;16.00;14.60;;;;;7.58;50.35;97519.22;6160135;28;126648;-57
2021/01/13 01:08:10;;;;;;;;;16.60;15.00;;;;;7.28;51.03;97491.78;6160989;28;125388;-57
2021/01/13 01:11:15;;;;;;;;;15.40;15.00;;;;;7.72;51.02;97555.47;6149551;28;127054;-57
2021/01/13 01:14:16;;;;;;;;;16.00;14.60;;;;;7.80;50.97;97563.19;6160437;28;124734;-57
2021/01/13 01:17:18;;;;;;;;;14.60;13.00;;;;;7.99;50.63;97554.97;6161063;28;125299;-58
2021/01/13 01:20:20;;;;;;;;;15.40;13.60;;;;;7.82;51.12;97565.59;6160666;28;127346;-57
2021/01/13 01:23:21;;;;;;;;;13.00;11.67;;;;;7.70;51.39;97573.69;6160141;28;126385;-58
2021/01/13 01:26:24;;;;;;;;;12.00;11.60;;;;;7.71;51.34;97575.31;6160181;28;125071;-57
2021/01/13 01:29:25;;;;;;;;;17.00;14.00;;;;;7.78;51.52;97588.59;6159789;28;126116;-57
2021/01/13 01:32:29;;;;;;;;;13.00;13.00;;;;;7.78;51.45;97581.38;6159781;28;127666;-57
2021/01/13 01:35:31;;;;;;;;;14.60;13.60;;;;;7.88;51.18;97582.63;6160865;28;125107;-57
2021/01/13 01:38:32;;;;;;;;;14.00;13.00;;;;;7.74;51.38;97582.91;6160220;28;124515;-57
2021/01/13 01:41:34;;;;;;;;;15.00;13.00;;;;;7.94;50.46;97595.09;6144809;28;124958;-58
2021/01/13 01:44:35;;;;;;;;;15.60;13.00;;;;;7.88;50.60;97602.22;6144736;28;127054;-58
2021/01/13 01:47:57;;;;;;;;;14.25;14.25;;;;;8.02;50.05;97602.78;6143142;28;126279;-57
2021/01/13 01:51:01;;;;;;;;;15.20;14.00;;;;;8.17;49.61;97606.59;6159916;28;126181;-57
2021/01/13 01:54:16;;;;;;;;;12.00;12.00;;;;;8.13;49.63;97602.78;6159697;28;126221;-58
2021/01/13 01:57:22;;;;;;;;;16.60;15.00;;;;;8.21;49.27;97607.75;6160106;28;124588;-57
2021/01/13 02:00:30;;;;;;;;;15.00;14.00;;;;;8.27;48.93;97614.06;6159219;28;125029;-58
2021/01/13 02:03:46;;;;;;;;;13.00;13.00;;;;;8.28;48.79;97603.09;6157638;28;124871;-58
2021/01/13 02:06:57;;;;;;;;;16.00;15.00;;;;;8.31;48.44;97606.38;6158111;28;126056;-57
2021/01/13 02:10:00;;;;;;;;;15.00;14.25;;;;;8.31;48.29;97604.50;6159812;28;126661;-58
2021/01/13 02:13:07;;;;;;;;;15.00;12.20;;;;;8.10;48.15;97581.78;6159948;28;127469;-58
2021/01/13 02:16:11;;;;;;;;;15.00;12.00;;;;;8.27;48.00;97619.41;6152550;28;126018;-58
2021/01/13 02:19:23;;;;;;;;;12.00;11.00;;;;;8.36;47.92;97627.94;6157748;28;124689;-58
2021/01/13 02:22:25;;;;;;;;;13.20;12.00;;;;;8.26;47.62;97634.72;6143616;28;124685;-58
2021/01/13 02:25:36;;;;;;;;;11.00;10.80;;;;;8.22;47.77;97633.56;6158968;28;126219;-58
2021/01/13 02:28:46;;;;;;;;;14.00;12.00;;;;;8.35;47.40;97624.47;6159402;28;127114;-58
2021/01/13 02:31:57;;;;;;;;;11.00;10.40;;;;;8.43;47.15;97634.00;6159191;28;127093;-57
2021/01/13 02:35:02;;;;;;;;;13.00;12.00;;;;;8.43;46.84;97642.06;6146092;28;126028;-58
2021/01/13 02:38:13;;;;;;;;;11.00;10.00;;;;;8.41;46.28;97636.91;6158828;28;125773;-58
2021/01/13 02:41:20;;;;;;;;;11.60;10.00;;;;;8.12;46.45;97649.44;6158413;28;126211;-58
2021/01/13 02:44:28;;;;;;;;;11.75;10.00;;;;;7.94;46.29;97609.34;6158988;28;124770;-57
2021/01/13 02:47:54;;;;;;;;;10.00;8.00;;;;;8.33;45.92;97641.84;6156280;28;126060;-58
2021/01/13 02:50:58;;;;;;;;;11.00;10.60;;;;;8.37;46.20;97684.09;6158285;28;124085;-57
2021/01/13 02:54:12;;;;;;;;;11.40;10.00;;;;;8.34;46.10;97647.00;6159129;28;125171;-57
2021/01/13 02:57:19;;;;;;;;;14.00;11.00;;;;;8.35;46.16;97648.63;6159085;28;125890;-58
2021/01/13 03:00:22;;;;;;;;;13.00;11.00;;;;;8.34;46.10;97640.81;6158464;28;125993;-57
2021/01/13 03:03:24;;;;;;;;;11.00;10.00;;;;;8.22;45.91;97646.16;6133878;28;125034;-58
2021/01/13 03:06:29;;;;;;;;;10.40;10.00;;;;;8.04;46.31;97639.09;6157736;28;127637;-58
2021/01/13 03:09:33;;;;;;;;;11.00;10.00;;;;;8.12;46.34;97656.69;6158376;28;125209;-58
2021/01/13 03:12:39;;;;;;;;;12.00;12.00;;;;;8.11;46.53;97655.06;6158688;28;125729;-58
2021/01/13 03:15:41;;;;;;;;;13.25;12.25;;;;;7.93;46.58;97636.41;6156156;28;126251;-58
2021/01/13 03:19:03;;;;;;;;;12.00;11.00;;;;;8.09;46.38;97660.66;6155489;28;125949;-58
2021/01/13 03:22:15;;;;;;;;;15.75;14.00;;;;;8.12;46.44;97654.81;6157812;28;126737;-57
2021/01/13 03:25:20;;;;;;;;;13.60;13.00;;;;;8.01;46.46;97654.84;6158410;28;125957;-58
2021/01/13 03:28:24;;;;;;;;;13.00;12.00;;;;;8.08;46.12;97671.63;6157706;28;125864;-58
2021/01/13 03:31:29;;;;;;;;;12.00;11.00;;;;;8.04;46.30;97644.44;6157519;28;126350;-58
2021/01/13 03:34:34;;;;;;;;;14.33;13.00;;;;;8.16;46.17;97665.91;6157773;28;125887;-58
2021/01/13 03:37:57;;;;;;;;;15.00;14.00;;;;;8.16;46.08;97660.56;6158251;28;125825;-58
2021/01/13 03:41:04;;;;;;;;;13.75;13.25;;;;;8.19;46.01;97660.06;6158034;28;124730;-58
2021/01/13 03:44:08;;;;;;;;;18.00;14.00;;;;;8.11;45.86;97629.03;6157860;28;124507;-58
2021/01/13 03:47:19;;;;;;;;;17.40;15.00;;;;;8.14;46.10;97671.53;6142860;28;124640;-58
2021/01/13 03:50:20;;;;;;;;;16.00;15.00;;;;;8.17;45.83;97664.84;6156621;28;126632;-58
2021/01/13 03:53:26;;;;;;;;;13.00;13.00;;;;;8.18;45.77;97672.66;6157889;28;127514;-58
2021/01/13 03:56:28;;;;;;;;;15.80;14.80;;;;;7.95;46.09;97628.94;6146050;28;126633;-58
2021/01/13 03:59:37;;;;;;;;;17.00;16.00;;;;;8.18;46.11;97669.16;6150634;28;126571;-57
2021/01/13 04:03:05;;;;;;;;;18.40;16.60;;;;;8.17;46.41;97665.66;6156576;28;124951;-57
2021/01/13 04:06:11;;;;;;;;;18.80;17.80;;;;;8.12;47.25;97678.97;6157832;28;124744;-57
2021/01/13 04:09:16;;;;;;;;;20.60;18.40;;;;;8.08;47.44;97661.72;6157661;28;124788;-58
2021/01/13 04:12:21;;;;;;;;;18.00;17.00;;;;;8.12;47.45;97656.69;6156970;28;126286;-58
2021/01/13 04:15:38;;;;;;;;;17.20;17.00;;;;;8.18;47.66;97670.00;6157465;28;124854;-57
2021/01/13 04:18:41;;;;;;;;;20.00;19.00;;;;;8.17;47.57;97660.28;6153998;28;124780;-57
2021/01/13 04:21:43;;;;;;;;;20.25;19.00;;;;;8.23;47.83;97666.59;6157427;28;127255;-58
2021/01/13 04:24:48;;;;;;;;;23.33;19.00;;;;;8.19;47.89;97676.19;6157246;28;125618;-57
2021/01/13 04:27:50;;;;;;;;;21.40;20.00;;;;;7.93;47.85;97615.75;6153511;28;127051;-58
2021/01/13 04:30:53;;;;;;;;;17.20;16.20;;;;;8.01;47.92;97623.47;6144473;28;127577;-58
2021/01/13 04:33:55;;;;;;;;;20.00;17.20;;;;;8.24;47.92;97661.00;6157346;28;124064;-58
2021/01/13 04:36:57;;;;;;;;;19.00;16.00;;;;;8.26;47.82;97661.56;6157259;28;127056;-58
2021/01/13 04:40:15;;;;;;;;;23.00;19.00;;;;;7.90;48.08;97624.28;6156661;28;125989;-58
2021/01/13 04:43:23;;;;;;;;;19.50;19.00;;;;;8.14;48.22;97673.38;6156519;28;126124;-57
2021/01/13 04:46:35;;;;;;;;;21.00;20.00;;;;;8.11;48.62;97673.88;6140783;28;126280;-57
2021/01/13 04:49:38;;;;;;;;;19.33;18.00;;;;;7.98;48.57;97641.88;6157382;28;124762;-57
2021/01/13 04:52:42;;;;;;;;;19.00;18.00;;;;;8.15;48.48;97675.03;6158116;28;123939;-58
2021/01/13 04:55:54;;;;;;;;;20.60;18.60;;;;;8.12;48.71;97687.03;6158194;28;125786;-58
2021/01/13 04:59:25;;;;;;;;;20.50;19.50;;;;;8.11;48.81;97684.59;6157694;28;126288;-58
2021/01/13 05:03:13;;;;;;;;;20.20;18.00;;;;;8.21;48.55;97687.47;6149782;28;124938;-58
2021/01/13 05:06:17;;;;;;;;;20.40;18.00;;;;;8.13;48.79;97687.84;6116385;28;126020;-58
2021/01/13 05:09:19;;;;;;;;;23.60;19.60;;;;;8.14;48.95;97684.13;6158242;28;125868;-58
2021/01/13 05:12:25;;;;;;;;;22.00;19.40;;;;;8.09;48.94;97697.44;6158048;28;127553;-58
2021/01/13 05:15:32;;;;;;;;;20.00;18.00;;;;;7.94;49.05;97692.53;6157822;28;126205;-58
2021/01/13 05:18:56;;;;;;;;;20.60;18.60;;;;;8.02;48.99;97696.72;6157857;28;124926;-58
2021/01/13 05:21:58;;;;;;;;;20.00;19.00;;;;;8.11;48.33;97690.75;6158141;28;127247;-58
2021/01/13 05:25:05;;;;;;;;;22.00;18.75;;;;;8.15;48.15;97716.09;6157515;28;126622;-58
2021/01/13 05:28:17;;;;;;;;;17.00;15.20;;;;;8.02;47.91;97707.44;6153311;28;126155;-58
2021/01/13 05:31:24;;;;;;;;;17.40;16.00;;;;;7.92;47.93;97704.53;6157351;28;126153;-59
2021/01/13 05:34:30;;;;;;;;;18.00;17.00;;;;;7.81;48.69;97722.28;6148279;28;125987;-59
2021/01/13 05:37:49;;;;;;;;;17.40;16.00;;;;;7.73;48.85;97720.75;6161791;28;124712;-58
2021/01/13 05:40:53;;;;;;;;;19.00;17.00;;;;;7.81;48.71;97730.34;6161674;28;126842;-58
2021/01/13 05:43:55;;;;;;;;;17.00;16.00;;;;;7.45;49.33;97727.81;6161030;28;126224;-58
2021/01/13 05:47:02;;;;;;;;;17.00;17.00;;;;;7.58;49.30;97735.66;6160970;28;124290;-58
2021/01/13 05:50:04;;;;;;;;;20.00;18.00;;;;;7.60;49.39;97737.06;6161448;28;127032;-58
2021/01/13 05:53:07;;;;;;;;;19.00;17.00;;;;;7.15;49.50;97704.53;6161286;28;126089;-58
2021/01/13 05:56:09;;;;;;;;;19.00;17.00;;;;;7.66;49.30;97754.94;6161496;28;127124;-58
2021/01/13 05:59:10;;;;;;;;;19.25;17.25;;;;;7.69;49.26;97770.56;6158303;28;125288;-58
2021/01/13 06:02:16;;;;;;;;;14.00;13.00;;;;;7.70;49.05;97771.38;6160832;28;126495;-59
2021/01/13 06:05:19;;;;;;;;;15.40;14.00;;;;;7.75;48.88;97775.00;6161373;28;127414;-58
2021/01/13 06:08:25;;;;;;;;;14.75;11.00;;;;;7.63;48.58;97779.50;6161385;28;124849;-58
2021/01/13 06:11:29;;;;;;;;;14.00;13.50;;;;;7.67;48.94;97794.09;6161043;28;125689;-58
2021/01/13 06:14:31;;;;;;;;;12.50;12.00;;;;;7.73;48.95;97790.50;6160999;28;126034;-58
2021/01/13 06:17:33;;;;;;;;;11.00;10.25;;;;;7.74;48.52;97788.63;6161156;28;127354;-58
2021/01/13 06:20:35;;;;;;;;;11.60;11.40;;;;;7.74;48.32;97796.69;6160648;28;126864;-59
2021/01/13 06:23:50;;;;;;;;;10.80;10.00;;;;;7.75;47.53;97804.50;6160704;28;126541;-58
2021/01/13 06:26:57;;;;;;;;;7.20;6.60;;;;;7.64;45.91;97810.66;6160660;28;126477;-58
2021/01/13 06:30:03;;;;;;;;;6.00;6.00;;;;;7.44;45.52;97818.16;6156501;28;125938;-58
2021/01/13 06:33:15;;;;;;;;;5.60;5.00;;;;;7.47;44.91;97822.28;6160097;28;126164;-57
2021/01/13 06:36:37;;;;;;;;;5.00;4.60;;;;;7.06;44.31;97804.25;6160580;28;125798;-57
2021/01/13 06:39:40;;;;;;;;;5.00;4.40;;;;;7.24;43.85;97839.88;6160003;28;127655;-57
2021/01/13 06:42:42;;;;;;;;;5.60;5.00;;;;;7.31;43.61;97856.72;6160614;28;127386;-58
2021/01/13 06:45:44;;;;;;;;;5.00;5.00;;;;;7.16;43.74;97853.59;6160072;28;126360;-57
2021/01/13 06:48:45;;;;;;;;;4.00;4.00;;;;;7.27;43.43;97857.38;6160240;28;125291;-57
2021/01/13 06:51:51;;;;;;;;;7.00;6.00;;;;;6.94;43.54;97820.25;6160685;28;126533;-57
2021/01/13 06:54:54;;;;;;;;;6.80;6.00;;;;;7.21;43.53;97869.00;6160698;28;127126;-58
2021/01/13 06:58:06;;;;;;;;;6.60;6.40;;;;;7.31;43.56;97891.56;6155732;28;126344;-58
2021/01/13 07:01:07;;;;;;;;;3.75;3.75;;;;;7.40;43.34;97884.84;6140350;28;124528;-58
2021/01/13 07:04:09;;;;;;;;;5.00;5.00;;;;;7.18;43.59;97885.53;6158256;28;128161;-58
2021/01/13 07:07:12;;;;;;;;;6.00;5.20;;;;;7.18;43.75;97890.91;6160221;28;126073;-58
2021/01/13 07:10:15;;;;;;;;;6.00;6.00;;;;;7.19;43.74;97903.25;6159450;28;126404;-58
2021/01/13 07:13:17;;;;;;;;;8.00;8.00;;;;;7.33;43.49;97896.72;6159956;28;126164;-59
2021/01/13 07:16:33;;;;;;;;;8.00;6.25;;;;;7.43;43.63;97907.69;6159300;28;125778;-59
2021/01/13 07:19:36;;;;;;;;;7.50;7.50;;;;;7.53;43.89;97910.66;6159168;28;126559;-59
2021/01/13 07:22:38;;;;;;;;;7.60;7.00;;;;;7.46;44.02;97909.13;6159842;28;125760;-59
2021/01/13 07:25:48;;;;;;;;;6.00;6.00;;;;;7.40;44.30;97905.47;6159735;28;125205;-59
2021/01/13 07:29:07;;;;;;;;;8.00;7.50;;;;;7.41;44.26;97912.47;6145655;28;125844;-59
2021/01/13 07:32:11;;;;;;;;;9.00;8.00;;;;;7.40;44.14;97916.19;6141039;28;126839;-58
2021/01/13 07:35:15;;;;;;;;;7.00;7.00;;;;;7.38;44.07;97908.38;6159078;28;124721;-59
2021/01/13 07:38:19;;;;;;;;;9.00;8.00;;;;;7.47;44.20;97918.81;6148408;28;127726;-59
2021/01/13 07:41:56;;;;;;;;;6.00;6.00;;;;;7.16;44.19;97884.94;6157889;28;126740;-59
2021/01/13 07:45:19;;;;;;;;;8.00;8.00;;;;;7.52;44.14;97935.88;6158173;28;125856;-59
2021/01/13 07:48:30;;;;;;;;;8.00;8.00;;;;;7.52;44.05;97943.09;6156956;28;126961;-59
2021/01/13 07:51:43;;;;;;;;;10.00;8.60;;;;;7.53;44.05;97940.16;6157427;28;124767;-59
2021/01/13 07:54:49;;;;;;;;;8.80;8.00;;;;;7.71;43.96;97939.34;6159145;28;124759;-59
2021/01/13 07:57:57;;;;;;;;;7.80;7.40;;;;;7.67;44.05;97943.53;6157714;28;124874;-58
2021/01/13 08:01:20;;;;;;;;;9.20;8.20;;;;;7.73;43.99;97945.28;6158763;28;125999;-59
2021/01/13 08:04:30;;;;;;;;;9.20;9.00;;;;;7.75;44.16;97944.03;6157419;28;126983;-59
2021/01/13 08:07:42;;;;;;;;;8.60;8.00;;;;;7.81;44.24;97953.84;6157900;28;124622;-59
2021/01/13 08:11:05;;;;;;;;;9.20;8.80;;;;;7.79;44.73;97947.88;6157292;28;124901;-59
2021/01/13 08:14:46;;;;;;;;;9.25;8.00;;;;;7.86;44.86;97955.03;6156980;28;126243;-59
2021/01/13 08:18:55;;;;;;;;;9.80;9.00;;;;;7.85;45.09;97943.47;6157781;28;125952;-59
2021/01/13 08:22:05;;;;;;;;;10.00;9.00;;;;;7.97;44.77;97938.97;6061811;28;125939;-59
2021/01/13 08:25:18;;;;;;;;;12.00;11.00;;;;;8.14;44.46;97947.19;6153325;28;124920;-59
2021/01/13 08:28:21;;;;;;;;;10.50;10.00;;;;;8.03;44.35;97943.41;6155706;28;124675;-59
2021/01/13 08:31:25;;;;;;;;;12.00;10.00;;;;;8.01;44.28;97939.34;6155296;28;124987;-59
2021/01/13 08:34:35;;;;;;;;;10.40;8.80;;;;;8.06;44.18;97939.47;6141396;28;124560;-59
2021/01/13 08:37:37;;;;;;;;;12.75;10.75;;;;;8.07;43.94;97941.91;6156479;28;125177;-60
2021/01/13 08:40:39;;;;;;;;;14.00;12.00;;;;;8.00;44.09;97954.63;6159650;28;127660;-59
2021/01/13 08:44:02;;;;;;;;;13.00;11.00;;;;;8.06;43.84;97940.28;6158142;28;126982;-59
2021/01/13 08:47:03;;;;;;;;;14.60;12.60;;;;;7.86;43.99;97925.50;6155416;28;127554;-59
2021/01/13 08:50:13;;;;;;;;;12.80;11.40;;;;;8.15;44.08;97952.34;6155862;28;127604;-59
2021/01/13 08:53:26;;;;;;;;;12.00;11.25;;;;;8.07;44.03;97947.28;6155758;28;126004;-59
2021/01/13 08:56:57;;;;;;;;;14.50;13.00;;;;;8.00;44.10;97945.75;6165752;28;125944;-59
2021/01/13 09:00:08;;;;;;;;;15.00;14.20;;;;;7.91;44.09;97923.78;6171338;28;127248;-60
2021/01/13 09:03:26;;;;;;;;;17.00;14.00;;;;;7.97;44.30;97944.31;6147005;28;127915;-59
2021/01/13 09:06:29;;;;;;;;;17.00;16.00;;;;;7.88;44.33;97948.38;6155206;28;126004;-60
2021/01/13 09:09:36;;;;;;;;;18.00;15.60;;;;;7.94;44.07;97946.66;6160817;28;125895;-60
2021/01/13 09:12:39;;;;;;;;;19.00;17.00;;;;;8.04;44.25;97954.97;6160167;28;124875;-60
2021/01/13 09:15:40;;;;;;;;;16.20;16.00;;;;;7.92;44.07;97956.78;6120961;28;126453;-59
2021/01/13 09:18:45;;;;;;;;;16.00;15.60;;;;;8.14;44.16;97964.13;6160165;28;126005;-60
2021/01/13 09:21:58;;;;;;;;;16.00;14.00;;;;;7.93;44.05;97923.53;6159993;28;124552;-59
2021/01/13 09:25:02;;;;;;;;;17.50;14.50;;;;;8.14;44.03;97965.97;6160031;28;124575;-61
2021/01/13 09:28:15;;;;;;;;;16.75;14.75;;;;;7.90;44.37;97967.78;6159768;28;124987;-59
2021/01/13 09:31:18;;;;;;;;;14.00;12.00;;;;;7.89;44.89;97970.66;6159936;28;126544;-59
2021/01/13 09:34:31;;;;;;;;;15.60;14.00;;;;;7.72;45.31;97971.28;6159443;28;124822;-59
2021/01/13 09:37:51;;;;;;;;;15.20;13.60;;;;;7.75;45.61;97967.34;6159444;28;125552;-59
2021/01/13 09:40:54;;;;;;;;;16.40;14.80;;;;;7.83;45.33;97950.91;6167241;28;124878;-59
2021/01/13 09:44:12;;;;;;;;;17.00;16.50;;;;;7.88;45.21;97939.50;6149717;28;124667;-60
2021/01/13 09:47:26;;;;;;;;;16.00;14.50;;;;;8.08;44.25;97937.38;6159518;28;126587;-59
2021/01/13 09:50:32;;;;;;;;;18.00;16.00;;;;;9.01;43.28;97943.72;6148456;28;125545;-59
2021/01/13 09:53:46;;;;;;;;;16.00;15.00;;;;;9.81;41.52;97942.97;6143646;28;125836;-59
2021/01/13 09:56:54;;;;;;;;;18.00;15.60;;;;;10.38;40.08;97922.22;6159777;28;125257;-59
2021/01/13 10:00:05;;;;;;;;;14.40;13.60;;;;;10.65;39.20;97944.78;6155277;28;126319;-59
2021/01/13 10:03:13;;;;;;;;;17.50;15.75;;;;;10.57;38.68;97944.38;6154992;28;125866;-59
2021/01/13 10:06:16;;;;;;;;;16.40;15.20;;;;;10.55;38.74;97939.25;6159106;28;126411;-59
2021/01/13 10:09:38;;;;;;;;;18.20;17.20;;;;;10.38;38.97;97930.31;6159315;28;125335;-59
2021/01/13 10:12:42;;;;;;;;;20.00;16.00;;;;;10.31;39.44;97954.72;6159359;28;126609;-59
2021/01/13 10:15:44;;;;;;;;;19.33;19.00;;;;;10.10;40.12;97957.25;6136624;28;127063;-59
2021/01/13 10:19:03;;;;;;;;;21.00;20.00;;;;;9.66;40.70;97956.97;6158888;28;126461;-59
2021/01/13 10:22:08;;;;;;;;;21.20;19.00;;;;;9.55;41.10;97952.41;6144488;28;124433;-59
2021/01/13 10:25:11;;;;;;;;;19.00;17.60;;;;;9.24;42.23;97939.34;6151372;28;127921;-59
2021/01/13 10:28:14;;;;;;;;;21.00;19.00;;;;;9.17;42.80;97952.94;6158391;28;127633;-59
2021/01/13 10:31:23;;;;;;;;;22.00;20.60;;;;;8.99;43.34;97948.50;6138721;28;126579;-59
2021/01/13 10:34:25;;;;;;;;;21.00;17.20;;;;;9.03;43.36;97944.31;6153585;28;125976;-59
2021/01/13 10:37:39;;;;;;;;;20.00;17.60;;;;;8.69;43.83;97929.81;6158705;28;125373;-59
2021/01/13 10:40:45;;;;;;;;;17.80;17.00;;;;;8.78;44.08;97938.34;6158577;28;124120;-60
2021/01/13 10:43:57;;;;;;;;;23.00;22.00;;;;;8.85;44.26;97940.91;6158454;28;124897;-59
2021/01/13 10:47:02;;;;;;;;;24.20;21.00;;;;;8.70;44.34;97934.13;6157586;28;126541;-59
2021/01/13 10:50:07;;;;;;;;;24.00;19.40;;;;;8.91;43.86;97945.34;6157858;28;126472;-60
2021/01/13 10:53:09;;;;;;;;;24.60;22.00;;;;;9.03;43.70;97932.75;6142919;28;126601;-59
2021/01/13 10:56:17;;;;;;;;;24.00;22.00;;;;;8.81;43.64;97905.63;6158097;28;125257;-59
2021/01/13 10:59:19;;;;;;;;;21.50;21.00;;;;;8.78;43.70;97919.53;6157338;28;124211;-60
2021/01/13 11:02:20;;;;;;;;;24.00;22.00;;;;;8.92;43.88;97922.81;6157652;28;126218;-59
2021/01/13 11:05:23;;;;;;;;;22.60;19.60;;;;;9.04;43.83;97920.94;6157533;28;126674;-59
2021/01/13 11:08:28;;;;;;;;;26.40;23.20;;;;;9.18;43.45;97916.13;6157842;28;125785;-59
2021/01/13 11:11:31;;;;;;;;;20.80;20.40;;;;;9.04;42.86;97872.56;6157992;28;126569;-59
2021/01/13 11:14:41;;;;;;;;;26.20;22.20;;;;;9.34;42.78;97923.44;6157722;28;125272;-59
2021/01/13 11:17:42;;;;;;;;;25.60;22.60;;;;;9.31;42.62;97911.28;6157356;28;126572;-59
2021/01/13 11:20:47;;;;;;;;;21.40;20.60;;;;;9.35;42.39;97900.88;6157266;28;127266;-60
2021/01/13 11:23:48;;;;;;;;;25.80;21.40;;;;;9.49;42.11;97899.53;6156382;28;124935;-59
2021/01/13 11:26:50;;;;;;;;;23.00;21.00;;;;;9.46;41.73;97898.16;6138315;28;124329;-60
2021/01/13 11:29:54;;;;;;;;;26.25;23.25;;;;;9.55;41.69;97893.22;6156812;28;124516;-59
2021/01/13 11:32:59;;;;;;;;;20.20;18.20;;;;;9.41;41.36;97887.31;6157020;28;126971;-59
2021/01/13 11:36:01;;;;;;;;;20.50;18.00;;;;;9.31;41.61;97897.03;6157050;28;125061;-59
2021/01/13 11:39:04;;;;;;;;;15.00;14.00;;;;;9.11;42.00;97894.72;6150879;28;125247;-60
2021/01/13 11:42:34;;;;;;;;;14.00;12.40;;;;;8.73;43.06;97892.56;6157434;28;125974;-59
2021/01/13 11:46:10;;;;;;;;;13.33;12.00;;;;;8.66;43.51;97899.91;6157607;28;124456;-59
2021/01/13 11:49:17;;;;;;;;;12.20;12.20;;;;;8.30;44.36;97898.25;6121144;28;124728;-59
2021/01/13 11:52:20;;;;;;;;;12.00;11.00;;;;;8.14;44.68;97883.59;6156484;28;125985;-60
2021/01/13 11:55:29;;;;;;;;;12.00;10.00;;;;;8.35;44.80;97893.00;6147420;28;124961;-60
2021/01/13 11:58:32;;;;;;;;;12.40;11.40;;;;;8.41;44.62;97900.09;6138904;28;126076;-59
2021/01/13 12:01:35;;;;;;;;;11.00;10.00;;;;;8.38;45.06;97889.03;6148926;28;127485;-59
2021/01/13 12:04:43;;;;;;;;;13.40;13.00;;;;;8.09;46.04;97904.09;6156873;28;124682;-60
2021/01/13 12:07:57;;;;;;;;;14.00;13.00;;;;;8.07;46.42;97893.59;6156733;28;125972;-59
2021/01/13 12:10:59;;;;;;;;;18.00;16.00;;;;;8.04;47.07;97899.44;6154156;28;124689;-60
2021/01/13 12:14:02;;;;;;;;;17.00;16.00;;;;;7.94;47.33;97887.63;6151698;28;127176;-59
2021/01/13 12:17:03;;;;;;;;;15.80;14.20;;;;;8.00;47.58;97889.38;6154970;28;124111;-60
2021/01/13 12:20:05;;;;;;;;;15.50;15.00;;;;;8.11;47.43;97875.97;6155415;28;125317;-59
2021/01/13 12:23:29;;;;;;;;;15.00;13.00;;;;;8.13;47.51;97890.00;6155555;28;125440;-58
2021/01/13 12:26:33;;;;;;;;;15.40;13.40;;;;;8.09;47.67;97888.00;6141707;28;126656;-59
2021/01/13 12:29:35;;;;;;;;;14.60;13.00;;;;;8.00;47.90;97875.97;6146949;28;124817;-59
2021/01/13 12:32:38;;;;;;;;;15.75;13.75;;;;;7.92;48.01;97874.41;6157313;28;125321;-59
2021/01/13 12:35:39;;;;;;;;;15.00;14.00;;;;;7.81;47.94;97854.56;6157405;28;127485;-60
2021/01/13 12:38:46;;;;;;;;;14.40;13.40;;;;;7.84;48.19;97858.66;6159909;28;126381;-59
2021/01/13 12:41:49;;;;;;;;;17.00;15.00;;;;;8.04;48.17;97872.59;6144619;28;126088;-59
2021/01/13 12:44:51;;;;;;;;;15.75;13.00;;;;;8.02;48.32;97865.81;6159767;28;124802;-60
2021/01/13 12:47:54;;;;;;;;;14.60;13.60;;;;;7.97;48.26;97871.88;6141815;28;127327;-60
2021/01/13 12:50:56;;;;;;;;;15.00;13.00;;;;;8.02;48.30;97861.25;6147245;28;128191;-59
2021/01/13 12:53:59;;;;;;;;;14.40;13.40;;;;;7.87;48.59;97870.81;6160534;28;125389;-60
2021/01/13 12:57:01;;;;;;;;;16.50;14.50;;;;;7.95;48.38;97865.91;6162149;28;125013;-60
2021/01/13 13:00:04;;;;;;;;;20.60;16.00;;;;;7.82;48.44;97841.94;6153688;28;127592;-59
2021/01/13 13:03:05;;;;;;;;;16.20;14.80;;;;;8.05;48.49;97862.69;6161528;28;127471;-59
2021/01/13 13:06:08;;;;;;;;;18.00;16.40;;;;;7.62;48.90;97834.22;6161682;28;127558;-59
2021/01/13 13:09:12;;;;;;;;;16.50;14.50;;;;;8.13;48.57;97870.38;6161946;28;125915;-59
2021/01/13 13:12:14;;;;;;;;;17.00;16.60;;;;;7.93;48.86;97856.44;6167852;28;127903;-59
2021/01/13 13:15:16;;;;;;;;;16.20;15.80;;;;;7.84;49.40;97862.16;6171259;28;127880;-60
2021/01/13 13:18:17;;;;;;;;;17.00;15.00;;;;;7.89;49.43;97857.97;6160592;28;125569;-59
2021/01/13 13:21:20;;;;;;;;;18.75;16.00;;;;;7.97;49.12;97849.56;6160005;28;126449;-59
2021/01/13 13:24:22;;;;;;;;;18.00;16.00;;;;;8.06;49.04;97857.06;6160132;28;125241;-59
2021/01/13 13:27:23;;;;;;;;;16.00;15.00;;;;;8.05;49.07;97863.50;6160068;28;127007;-59
2021/01/13 13:30:25;;;;;;;;;17.00;15.25;;;;;8.09;49.03;97861.97;6127034;28;125367;-59
2021/01/13 13:33:26;;;;;;;;;17.00;15.00;;;;;7.97;48.80;97866.50;6158380;28;125268;-59
2021/01/13 13:36:28;;;;;;;;;16.80;16.00;;;;;8.08;49.10;97870.25;6160357;28;127589;-59
2021/01/13 13:39:29;;;;;;;;;16.50;16.00;;;;;8.12;48.90;97883.00;6159392;28;127832;-59
2021/01/13 13:42:34;;;;;;;;;15.00;14.00;;;;;8.10;48.98;97889.66;6160321;28;124922;-59
2021/01/13 13:45:35;;;;;;;;;17.25;16.25;;;;;8.07;48.95;97885.53;6159802;28;124102;-59
2021/01/13 13:48:37;;;;;;;;;17.00;15.00;;;;;8.13;48.85;97881.94;6156746;28;126651;-59
2021/01/13 13:51:42;;;;;;;;;19.40;17.40;;;;;8.17;48.24;97877.75;6153399;28;127218;-59
2021/01/13 13:54:45;;;;;;;;;16.25;16.25;;;;;8.18;48.13;97874.03;6146421;28;126346;-59
2021/01/13 13:57:46;;;;;;;;;16.00;16.00;;;;;8.08;47.76;97859.53;6158825;28;127594;-59
2021/01/13 14:00:47;;;;;;;;;17.33;16.33;;;;;8.36;47.38;97899.97;6170780;28;125342;-59
2021/01/13 14:03:49;;;;;;;;;24.00;19.60;;;;;8.38;47.16;97895.22;6146317;28;125794;-60
2021/01/13 14:06:50;;;;;;;;;19.00;18.00;;;;;8.41;47.27;97894.75;6159172;28;127845;-59
2021/01/13 14:09:51;;;;;;;;;22.00;17.80;;;;;8.50;47.01;97901.41;6157771;28;125646;-59
2021/01/13 14:12:57;;;;;;;;;19.20;17.20;;;;;8.46;46.93;97904.78;6158301;28;127618;-59
2021/01/13 14:15:58;;;;;;;;;19.00;18.00;;;;;8.46;46.80;97912.84;6158510;28;126647;-59
2021/01/13 14:19:00;;;;;;;;;19.75;18.00;;;;;8.58;46.84;97916.38;6158517;28;127811;-60
2021/01/13 14:22:01;;;;;;;;;20.40;19.00;;;;;8.58;46.70;97922.56;6159016;28;127874;-59